Time;durP1;ratioP1;P1;durP2;ratioP2;P2;SDS_P1;SDS_P2;PMS_P1;PMS_P2;Temp;Humidity;BMP_temperature;BMP_pressure;BME280_temperature;BME280_humidity;BME280_pressure;Samples;Min_cycle;Max_cycle;Signal;HPM_P1;HPM_P2
2023/07/29 00:01:45;;;;;;;;;;;;;;;17.43;92.74;99688.73;104100;278;98069;-53
2023/07/29 00:04:18;;;;;;;;;;;;;;;17.38;92.49;99693.23;104095;278;122024;-53
2023/07/29 00:06:50;;;;;;;;;;;;;;;17.31;92.44;99694.66;104615;277;105788;-55
2023/07/29 00:09:23;;;;;;;;;;;;;;;17.20;92.30;99695.48;104575;278;115016;-54
2023/07/29 00:11:55;;;;;;;;;;;;;;;17.16;92.51;99693.38;104098;278;94707;-55
2023/07/29 00:14:28;;;;;;;;;;;;;;;17.11;92.10;99698.00;104088;277;97492;-55
2023/07/29 00:17:00;;;;;;;;;;;;;;;17.06;92.23;99698.85;104067;277;123106;-57
2023/07/29 00:19:33;;;;;;;;;;;;;;;17.00;92.15;99701.16;103917;278;107910;-57
2023/07/29 00:22:08;;;;;;;;;;;;;;;16.97;92.15;99708.43;104116;277;115453;-57
2023/07/29 00:24:41;;;;;;;;;;;;;;;16.93;92.11;99709.67;104119;278;96439;-57
2023/07/29 00:27:13;;;;;;;;;;;;;;;16.88;92.19;99708.82;104632;277;98455;-55
2023/07/29 00:29:45;;;;;;;;;;;;;;;16.85;92.37;99707.98;104150;277;121531;-55
2023/07/29 00:32:17;;;;;;;;;;;;;;;16.79;92.36;99707.41;104156;266;106279;-53
2023/07/29 00:34:49;;;;;;;;;;;;;;;16.73;92.50;99711.17;104102;277;114974;-53
2023/07/29 00:37:22;;;;;;;;;;;;;;;16.71;92.51;99712.34;104107;277;96924;-53
2023/07/29 00:39:54;;;;;;;;;;;;;;;16.69;92.55;99712.17;104120;277;96743;-53
2023/07/29 00:42:26;;;;;;;;;;;;;;;16.69;92.76;99710.98;104614;277;122517;-55
2023/07/29 00:44:59;;;;;;;;;;;;;;;16.70;93.01;99710.13;104601;277;105079;-55
2023/07/29 00:47:31;;;;;;;;;;;;;;;16.72;92.98;99715.09;104111;277;113688;-53
2023/07/29 00:50:03;;;;;;;;;;;;;;;16.79;93.20;99715.42;104576;277;96321;-53
2023/07/29 00:52:36;;;;;;;;;;;;;;;16.84;93.32;99717.20;104173;277;96735;-56
2023/07/29 00:55:09;;;;;;;;;;;;;;;16.91;93.43;99716.60;104079;277;122282;-55
2023/07/29 00:57:42;;;;;;;;;;;;;;;16.95;93.53;99719.23;104109;277;105720;-53
2023/07/29 01:00:15;;;;;;;;;;;;;;;16.98;93.73;99717.66;104542;277;114900;-53
2023/07/29 01:02:48;;;;;;;;;;;;;;;17.02;93.58;99719.59;104563;277;96702;-55
2023/07/29 01:05:20;;;;;;;;;;;;;;;17.06;93.74;99724.67;104112;277;98131;-55
2023/07/29 01:08:00;;;;;;;;;;;;;;;17.13;93.69;99723.69;104097;277;122084;-55
2023/07/29 01:10:41;;;;;;;;;;;;;;;17.16;93.92;99723.30;104123;277;103414;-55
2023/07/29 01:13:19;;;;;;;;;;;;;;;17.17;93.87;99723.77;104117;278;113741;-55
2023/07/29 01:15:55;;;;;;;;;;;;;;;17.18;93.87;99725.25;104111;277;96213;-54
2023/07/29 01:18:30;;;;;;;;;;;;;;;17.18;93.74;99730.50;104546;277;97910;-53
2023/07/29 01:21:04;;;;;;;;;;;;;;;17.20;93.76;99730.02;104121;277;122610;-55
2023/07/29 01:23:37;;;;;;;;;;;;;;;17.20;93.79;99733.71;104122;277;105799;-55
2023/07/29 01:26:10;;;;;;;;;;;;;;;17.19;93.84;99737.06;104598;277;113870;-53
2023/07/29 01:28:42;;;;;;;;;;;;;;;17.18;93.78;99738.61;104594;277;96561;-53
2023/07/29 01:31:21;;;;;;;;;;;;;;;17.14;93.59;99739.92;104610;282;97870;-53
2023/07/29 01:33:59;;;;;;;;;;;;;;;17.12;93.48;99738.30;104600;278;120945;-53
2023/07/29 01:36:32;;;;;;;;;;;;;;;17.10;93.49;99739.27;104582;277;105353;-55
2023/07/29 01:39:05;;;;;;;;;;;;;;;17.09;93.53;99743.55;104097;277;113410;-56
2023/07/29 01:41:38;;;;;;;;;;;;;;;17.06;93.38;99739.94;104573;277;95640;-57
2023/07/29 01:44:10;;;;;;;;;;;;;;;17.03;93.26;99737.51;104121;277;98368;-58
2023/07/29 01:46:42;;;;;;;;;;;;;;;16.99;93.60;99739.45;104502;277;121157;-58
2023/07/29 01:49:15;;;;;;;;;;;;;;;16.98;93.54;99741.19;104058;279;105388;-58
2023/07/29 01:51:47;;;;;;;;;;;;;;;16.95;93.33;99742.92;104092;279;113923;-55
2023/07/29 01:54:19;;;;;;;;;;;;;;;16.93;93.25;99744.21;104065;279;96395;-55
2023/07/29 01:56:52;;;;;;;;;;;;;;;16.92;93.42;99749.64;104111;279;96933;-58
2023/07/29 01:59:24;;;;;;;;;;;;;;;16.90;93.36;99747.38;104106;279;121834;-58
2023/07/29 02:01:56;;;;;;;;;;;;;;;16.90;93.60;99750.03;104082;279;105728;-54
2023/07/29 02:04:28;;;;;;;;;;;;;;;16.90;93.55;99748.70;104116;279;115660;-54
2023/07/29 02:07:01;;;;;;;;;;;;;;;16.85;93.59;99754.22;104072;279;96503;-56
2023/07/29 02:09:33;;;;;;;;;;;;;;;16.84;93.70;99756.86;104100;279;97122;-56
2023/07/29 02:12:07;;;;;;;;;;;;;;;16.85;93.63;99757.38;104058;279;121335;-55
2023/07/29 02:14:39;;;;;;;;;;;;;;;16.81;93.72;99758.02;104495;279;104963;-55
2023/07/29 02:17:12;;;;;;;;;;;;;;;16.80;93.74;99756.91;104483;279;114914;-54
2023/07/29 02:19:44;;;;;;;;;;;;;;;16.81;93.78;99759.37;104048;279;95893;-53
2023/07/29 02:22:17;;;;;;;;;;;;;;;16.78;93.85;99762.20;104085;279;95229;-58
2023/07/29 02:24:50;;;;;;;;;;;;;;;16.77;93.67;99766.94;104095;279;120782;-58
2023/07/29 02:27:22;;;;;;;;;;;;;;;16.75;93.75;99767.94;104079;279;105882;-55
2023/07/29 02:29:55;;;;;;;;;;;;;;;16.71;93.72;99767.43;104050;279;115040;-55
2023/07/29 02:32:27;;;;;;;;;;;;;;;16.69;93.83;99768.38;104075;279;96709;-55
2023/07/29 02:34:59;;;;;;;;;;;;;;;16.67;93.89;99770.84;104082;279;97766;-55
2023/07/29 02:37:32;;;;;;;;;;;;;;;16.64;93.93;99769.45;104095;279;122115;-54
2023/07/29 02:40:08;;;;;;;;;;;;;;;16.62;93.76;99772.17;104079;279;106336;-54
2023/07/29 02:42:41;;;;;;;;;;;;;;;16.61;93.82;99766.36;104079;279;114347;-56
2023/07/29 02:45:13;;;;;;;;;;;;;;;16.61;93.85;99767.41;104095;279;97043;-56
2023/07/29 02:47:45;;;;;;;;;;;;;;;16.62;93.68;99770.63;104500;279;98001;-54
2023/07/29 02:50:18;;;;;;;;;;;;;;;16.61;93.79;99772.36;104076;279;121234;-54
2023/07/29 02:52:50;;;;;;;;;;;;;;;16.56;93.83;99775.38;104083;279;105539;-53
2023/07/29 02:55:22;;;;;;;;;;;;;;;16.53;93.70;99776.72;104123;279;113653;-54
2023/07/29 02:57:54;;;;;;;;;;;;;;;16.48;93.87;99779.55;104087;279;95591;-53
2023/07/29 03:00:27;;;;;;;;;;;;;;;16.46;93.68;99781.96;104092;279;95478;-53
2023/07/29 03:02:59;;;;;;;;;;;;;;;16.44;93.82;99779.54;104491;279;121906;-55
2023/07/29 03:05:32;;;;;;;;;;;;;;;16.41;93.66;99781.98;103843;281;106477;-55
2023/07/29 03:08:04;;;;;;;;;;;;;;;16.37;93.91;99786.81;104109;279;115319;-54
2023/07/29 03:10:37;;;;;;;;;;;;;;;16.36;93.84;99783.95;104076;279;96961;-54
2023/07/29 03:13:09;;;;;;;;;;;;;;;16.33;93.89;99786.45;104476;279;96917;-56
2023/07/29 03:15:42;;;;;;;;;;;;;;;16.33;94.15;99787.91;104076;279;121554;-56
2023/07/29 03:18:15;;;;;;;;;;;;;;;16.35;94.17;99785.66;104089;279;105882;-55
2023/07/29 03:20:47;;;;;;;;;;;;;;;16.37;94.19;99792.15;104454;279;114785;-55
2023/07/29 03:23:19;;;;;;;;;;;;;;;16.32;94.29;99796.95;104506;279;97035;-57
2023/07/29 03:25:56;;;;;;;;;;;;;;;16.31;94.33;99798.27;104084;279;98086;-56
2023/07/29 03:28:29;;;;;;;;;;;;;;;16.34;94.51;99798.30;104504;279;120955;-55
2023/07/29 03:31:02;;;;;;;;;;;;;;;16.34;94.54;99802.61;104494;279;105924;-55
2023/07/29 03:33:34;;;;;;;;;;;;;;;16.36;94.30;99803.23;104492;279;112161;-56
2023/07/29 03:36:07;;;;;;;;;;;;;;;16.38;94.24;99804.38;104477;279;95830;-56
2023/07/29 03:38:40;;;;;;;;;;;;;;;16.45;94.26;99804.67;104093;279;97746;-56
2023/07/29 03:41:12;;;;;;;;;;;;;;;16.46;94.26;99807.80;104084;279;122727;-57
2023/07/29 03:43:44;;;;;;;;;;;;;;;16.51;94.39;99808.30;104505;271;105461;-57
2023/07/29 03:46:19;;;;;;;;;;;;;;;16.54;94.34;99809.97;104106;279;114085;-57
2023/07/29 03:48:51;;;;;;;;;;;;;;;16.60;94.41;99813.08;104087;279;96323;-57
2023/07/29 03:51:24;;;;;;;;;;;;;;;16.66;94.47;99818.99;104140;279;95567;-57
2023/07/29 03:53:56;;;;;;;;;;;;;;;16.71;94.17;99818.64;104086;279;122325;-57
2023/07/29 03:56:28;;;;;;;;;;;;;;;16.67;94.21;99814.27;104114;279;105176;-57
2023/07/29 03:59:06;;;;;;;;;;;;;;;16.72;94.41;99819.38;104064;279;114612;-57
2023/07/29 04:01:39;;;;;;;;;;;;;;;16.79;94.30;99822.52;104057;279;96999;-57
2023/07/29 04:04:11;;;;;;;;;;;;;;;16.90;94.23;99821.80;104082;279;95409;-57
2023/07/29 04:06:43;;;;;;;;;;;;;;;17.00;93.98;99817.90;104483;282;121154;-57
2023/07/29 04:09:15;;;;;;;;;;;;;;;17.14;93.96;99820.55;104473;279;104918;-57
2023/07/29 04:11:48;;;;;;;;;;;;;;;17.28;93.88;99821.90;104084;279;114076;-55
2023/07/29 04:14:21;;;;;;;;;;;;;;;17.49;93.74;99821.58;104105;279;95609;-55
2023/07/29 04:16:53;;;;;;;;;;;;;;;17.61;93.54;99824.98;104097;279;95394;-53
2023/07/29 04:19:25;;;;;;;;;;;;;;;17.84;93.42;99826.33;104073;279;121976;-53
2023/07/29 04:21:58;;;;;;;;;;;;;;;18.02;93.20;99822.33;104095;279;104196;-57
2023/07/29 04:24:30;;;;;;;;;;;;;;;18.05;93.10;99830.48;104093;279;114579;-57
2023/07/29 04:27:03;;;;;;;;;;;;;;;18.06;92.46;99836.01;104080;279;95582;-57
2023/07/29 04:29:35;;;;;;;;;;;;;;;17.99;92.29;99837.88;104527;279;96515;-57
2023/07/29 04:32:08;;;;;;;;;;;;;;;17.91;92.24;99845.34;103842;280;120993;-55
2023/07/29 04:34:41;;;;;;;;;;;;;;;17.85;92.20;99849.30;104058;279;104352;-55
2023/07/29 04:37:13;;;;;;;;;;;;;;;17.96;92.29;99855.86;104502;279;113208;-55
2023/07/29 04:39:46;;;;;;;;;;;;;;;18.05;92.07;99857.30;104091;279;96446;-54
2023/07/29 04:42:18;;;;;;;;;;;;;;;18.14;92.18;99859.80;104076;279;96960;-54
2023/07/29 04:44:50;;;;;;;;;;;;;;;18.20;92.04;99865.19;104448;283;122210;-54
2023/07/29 04:47:22;;;;;;;;;;;;;;;18.23;91.93;99867.30;104089;279;105724;-55
2023/07/29 04:49:55;;;;;;;;;;;;;;;18.12;91.65;99869.56;104079;279;113152;-55
2023/07/29 04:52:27;;;;;;;;;;;;;;;18.11;91.51;99874.01;104063;279;95231;-57
2023/07/29 04:54:59;;;;;;;;;;;;;;;18.21;91.69;99872.03;104075;279;97394;-57
2023/07/29 04:57:32;;;;;;;;;;;;;;;18.35;91.77;99874.41;104486;279;120602;-55
2023/07/29 05:00:04;;;;;;;;;;;;;;;18.50;91.66;99875.15;104055;279;105781;-55
2023/07/29 05:02:36;;;;;;;;;;;;;;;18.51;91.81;99877.78;104071;279;113918;-55
2023/07/29 05:05:09;;;;;;;;;;;;;;;18.50;91.35;99882.69;103812;279;99016;-55
2023/07/29 05:07:42;;;;;;;;;;;;;;;18.47;91.23;99889.42;104101;279;98342;-55
2023/07/29 05:10:14;;;;;;;;;;;;;;;18.49;91.19;99891.30;104072;279;120292;-55
2023/07/29 05:12:47;;;;;;;;;;;;;;;18.51;91.12;99890.41;104499;279;106270;-57
2023/07/29 05:15:19;;;;;;;;;;;;;;;18.49;90.86;99888.78;104074;279;114208;-57
2023/07/29 05:17:52;;;;;;;;;;;;;;;18.48;91.00;99892.98;103652;279;546005;-55
2023/07/29 05:20:24;;;;;;;;;;;;;;;18.57;90.82;99892.89;103914;279;96461;-55
2023/07/29 05:22:56;;;;;;;;;;;;;;;18.67;90.66;99889.70;104495;279;121871;-57
2023/07/29 05:25:28;;;;;;;;;;;;;;;18.72;90.56;99889.81;104102;279;103129;-57
2023/07/29 05:28:01;;;;;;;;;;;;;;;18.75;90.32;99889.58;104034;279;113674;-57
2023/07/29 05:30:37;;;;;;;;;;;;;;;18.67;90.55;99889.73;104084;279;95719;-57
2023/07/29 05:33:09;;;;;;;;;;;;;;;18.53;90.11;99892.80;104110;279;96765;-55
2023/07/29 05:35:41;;;;;;;;;;;;;;;18.56;89.98;99890.98;104105;279;120862;-55
2023/07/29 05:38:14;;;;;;;;;;;;;;;18.47;89.79;99889.36;104067;279;106074;-57
2023/07/29 05:40:49;;;;;;;;;;;;;;;18.42;90.11;99890.55;104062;279;112010;-55
2023/07/29 05:43:21;;;;;;;;;;;;;;;18.46;90.01;99888.59;104418;279;96834;-54
2023/07/29 05:45:53;;;;;;;;;;;;;;;18.42;89.98;99888.02;104065;279;96649;-57
2023/07/29 05:48:25;;;;;;;;;;;;;;;18.44;89.60;99890.08;104054;279;122782;-57
2023/07/29 05:50:57;;;;;;;;;;;;;;;18.47;89.53;99890.13;104089;279;105149;-55
2023/07/29 05:53:30;;;;;;;;;;;;;;;18.61;89.53;99891.25;104036;278;115203;-54
2023/07/29 05:56:02;;;;;;;;;;;;;;;18.82;89.28;99890.27;104067;279;95951;-54
2023/07/29 05:58:34;;;;;;;;;;;;;;;18.93;88.92;99893.40;104108;279;97032;-54
2023/07/29 06:01:06;;;;;;;;;;;;;;;18.99;88.83;99897.86;104102;279;122047;-55
2023/07/29 06:03:38;;;;;;;;;;;;;;;19.06;88.39;99901.56;104084;279;105923;-55
2023/07/29 06:06:11;;;;;;;;;;;;;;;19.05;88.14;99907.89;104083;279;112313;-55
2023/07/29 06:08:43;;;;;;;;;;;;;;;19.11;87.97;99911.47;104490;279;94495;-55
2023/07/29 06:11:16;;;;;;;;;;;;;;;19.11;87.71;99915.14;104106;279;96700;-56
2023/07/29 06:13:48;;;;;;;;;;;;;;;19.13;87.77;99920.91;104074;279;120439;-56
2023/07/29 06:16:21;;;;;;;;;;;;;;;19.19;87.60;99924.75;104112;279;104961;-57
2023/07/29 06:18:53;;;;;;;;;;;;;;;19.13;87.65;99922.12;104449;279;113994;-58
2023/07/29 06:21:25;;;;;;;;;;;;;;;19.20;87.90;99924.38;104490;279;93970;-58
2023/07/29 06:23:57;;;;;;;;;;;;;;;19.30;87.68;99926.42;104476;279;97515;-58
2023/07/29 06:26:29;;;;;;;;;;;;;;;19.37;87.62;99931.83;104087;279;120671;-51
2023/07/29 06:29:02;;;;;;;;;;;;;;;19.48;87.53;99935.02;104064;279;104660;-54
2023/07/29 06:31:34;;;;;;;;;;;;;;;19.60;87.69;99936.77;104062;279;113482;-55
2023/07/29 06:34:06;;;;;;;;;;;;;;;19.74;87.17;99943.98;104057;279;95247;-55
2023/07/29 06:36:39;;;;;;;;;;;;;;;19.77;86.90;99943.35;104483;279;98063;-54
2023/07/29 06:39:11;;;;;;;;;;;;;;;19.75;86.78;99948.33;104494;287;121405;-55
2023/07/29 06:41:43;;;;;;;;;;;;;;;19.76;86.47;99950.85;104525;295;105032;-53
2023/07/29 06:44:15;;;;;;;;;;;;;;;19.73;86.36;99954.33;104484;279;115395;-53
2023/07/29 06:46:47;;;;;;;;;;;;;;;19.72;86.30;99952.84;104520;287;96249;-55
2023/07/29 06:49:20;;;;;;;;;;;;;;;19.74;86.13;99958.45;104114;279;97223;-54
2023/07/29 06:51:52;;;;;;;;;;;;;;;19.78;86.05;99952.02;104115;279;121395;-55
2023/07/29 06:54:27;;;;;;;;;;;;;;;19.81;85.80;99948.05;104121;279;105975;-55
2023/07/29 06:56:59;;;;;;;;;;;;;;;19.96;86.24;99949.16;104117;279;113556;-55
2023/07/29 06:59:32;;;;;;;;;;;;;;;20.08;86.05;99946.75;104078;279;94784;-55
2023/07/29 07:02:04;;;;;;;;;;;;;;;20.14;85.54;99945.03;104074;279;96125;-52
2023/07/29 07:04:37;;;;;;;;;;;;;;;20.21;85.25;99947.06;104498;279;119712;-53
2023/07/29 07:07:09;;;;;;;;;;;;;;;20.21;84.89;99950.41;104121;279;106028;-54
2023/07/29 07:09:41;;;;;;;;;;;;;;;20.19;84.76;99952.58;104077;279;114777;-54
2023/07/29 07:12:13;;;;;;;;;;;;;;;20.31;85.05;99951.72;104117;279;93019;-57
2023/07/29 07:14:46;;;;;;;;;;;;;;;20.58;84.89;99945.20;104524;279;97948;-57
2023/07/29 07:17:18;;;;;;;;;;;;;;;20.85;84.44;99942.05;104478;283;120794;-57
2023/07/29 07:19:50;;;;;;;;;;;;;;;21.17;84.10;99944.34;104101;279;105607;-57
2023/07/29 07:22:22;;;;;;;;;;;;;;;21.50;83.66;99936.32;104495;279;114258;-54
2023/07/29 07:24:55;;;;;;;;;;;;;;;21.80;82.95;99933.60;104495;279;94478;-54
2023/07/29 07:27:28;;;;;;;;;;;;;;;21.98;82.35;99939.36;104137;279;95320;-57
2023/07/29 07:30:00;;;;;;;;;;;;;;;21.87;82.11;99938.45;104078;279;121511;-56
2023/07/29 07:32:32;;;;;;;;;;;;;;;22.03;81.96;99937.49;104111;279;105422;-57
2023/07/29 07:35:05;;;;;;;;;;;;;;;23.41;83.16;99934.83;104093;271;113472;-57
2023/07/29 07:37:37;;;;;;;;;;;;;;;26.11;80.84;99930.09;104089;279;96764;-55
2023/07/29 07:40:10;;;;;;;;;;;;;;;28.12;77.16;99925.20;104125;279;97461;-54
2023/07/29 07:42:43;;;;;;;;;;;;;;;29.03;72.92;99924.96;104086;283;121534;-53
2023/07/29 07:45:15;;;;;;;;;;;;;;;29.06;70.03;99917.45;104512;279;104332;-53
2023/07/29 07:47:47;;;;;;;;;;;;;;;30.05;68.55;99922.74;104536;279;115086;-53
2023/07/29 07:50:20;;;;;;;;;;;;;;;31.10;64.35;99923.33;103856;281;94297;-54
2023/07/29 07:52:53;;;;;;;;;;;;;;;31.37;62.67;99923.80;104148;279;98078;-56
2023/07/29 07:55:25;;;;;;;;;;;;;;;32.51;61.25;99922.62;104112;279;120961;-56
2023/07/29 07:57:57;;;;;;;;;;;;;;;32.80;59.28;99918.02;104089;279;105650;-58
2023/07/29 08:00:29;;;;;;;;;;;;;;;33.29;57.58;99917.59;104092;279;114660;-58
2023/07/29 08:03:02;;;;;;;;;;;;;;;33.14;55.92;99914.92;104107;279;93436;-55
2023/07/29 08:05:34;;;;;;;;;;;;;;;32.55;55.99;99917.73;104101;279;97531;-56
2023/07/29 08:08:07;;;;;;;;;;;;;;;31.15;54.89;99920.71;104095;279;121052;-58
2023/07/29 08:10:39;;;;;;;;;;;;;;;29.82;56.01;99920.11;104079;279;104697;-58
2023/07/29 08:13:12;;;;;;;;;;;;;;;29.69;56.52;99919.75;104071;279;113686;-54
2023/07/29 08:15:48;;;;;;;;;;;;;;;29.26;56.75;99915.85;104087;279;94578;-54
2023/07/29 08:18:20;;;;;;;;;;;;;;;30.69;57.47;99908.84;104084;279;96450;-56
2023/07/29 08:20:57;;;;;;;;;;;;;;;31.75;56.20;99912.30;104112;279;121969;-58
2023/07/29 08:23:30;;;;;;;;;;;;;;;32.63;54.73;99903.77;104123;279;105760;-58
2023/07/29 08:26:04;;;;;;;;;;;;;;;32.44;52.66;99904.23;104517;279;113365;-58
2023/07/29 08:28:38;;;;;;;;;;;;;;;31.62;52.42;99908.13;104049;279;94850;-58
2023/07/29 08:31:10;;;;;;;;;;;;;;;32.38;52.71;99903.36;104140;279;97265;-56
2023/07/29 08:33:43;;;;;;;;;;;;;;;33.38;51.73;99898.44;104103;279;121607;-56
2023/07/29 08:36:15;;;;;;;;;;;;;;;34.19;49.47;99900.71;104131;279;105436;-54
2023/07/29 08:38:47;;;;;;;;;;;;;;;34.22;47.65;99897.00;104074;279;113169;-60
2023/07/29 08:41:26;;;;;;;;;;;;;;;32.99;47.09;99894.68;104082;279;95839;-60
2023/07/29 08:44:01;;;;;;;;;;;;;;;33.10;47.48;99894.61;104131;279;97932;-60
2023/07/29 08:46:33;;;;;;;;;;;;;;;33.09;47.52;99892.64;103835;280;122661;-61
2023/07/29 08:49:06;;;;;;;;;;;;;;;33.16;46.74;99890.52;104115;279;104942;-61
2023/07/29 08:51:39;;;;;;;;;;;;;;;31.82;45.64;99897.14;104089;279;115303;-60
2023/07/29 08:54:11;;;;;;;;;;;;;;;30.71;46.75;99898.57;104093;279;94320;-60
2023/07/29 08:56:44;;;;;;;;;;;;;;;31.50;48.29;99903.33;104090;279;97126;-60
2023/07/29 08:59:17;;;;;;;;;;;;;;;32.34;47.39;99899.02;104480;279;122041;-60
2023/07/29 09:01:50;;;;;;;;;;;;;;;32.84;46.34;99898.80;104542;279;103629;-59
2023/07/29 09:04:23;;;;;;;;;;;;;;;32.59;44.93;99900.44;104498;279;114223;-59
2023/07/29 09:06:56;;;;;;;;;;;;;;;32.25;45.03;99900.83;104065;279;94978;-54
2023/07/29 09:09:29;;;;;;;;;;;;;;;32.35;44.63;99897.83;104077;279;97858;-54
2023/07/29 09:12:02;;;;;;;;;;;;;;;32.29;45.13;99892.96;104514;279;122936;-57
2023/07/29 09:14:34;;;;;;;;;;;;;;;32.45;44.90;99895.78;104099;279;105413;-57
2023/07/29 09:17:09;;;;;;;;;;;;;;;32.29;44.05;99894.56;104059;279;112999;-56
2023/07/29 09:19:42;;;;;;;;;;;;;;;32.22;44.60;99890.27;104481;279;93681;-55
2023/07/29 09:22:21;;;;;;;;;;;;;;;31.91;45.07;99893.83;104138;279;97929;-54
2023/07/29 09:24:54;;;;;;;;;;;;;;;31.87;45.63;99896.88;104101;279;121329;-54
2023/07/29 09:27:31;;;;;;;;;;;;;;;31.67;46.04;99892.20;104533;279;103782;-58
2023/07/29 09:30:05;;;;;;;;;;;;;;;31.40;46.47;99886.99;104107;279;114958;-58
2023/07/29 09:32:40;;;;;;;;;;;;;;;31.17;45.67;99890.20;104519;279;93314;-54
2023/07/29 09:35:14;;;;;;;;;;;;;;;30.70;45.54;99887.23;104144;279;97183;-55
2023/07/29 09:37:46;;;;;;;;;;;;;;;30.41;45.91;99883.76;104083;279;121171;-57
2023/07/29 09:40:19;;;;;;;;;;;;;;;30.26;46.52;99886.42;103867;279;105587;-56
2023/07/29 09:42:55;;;;;;;;;;;;;;;29.89;46.10;99890.20;104510;279;115309;-57
2023/07/29 09:45:28;;;;;;;;;;;;;;;29.69;46.16;99889.51;103852;279;96186;-57
2023/07/29 09:48:01;;;;;;;;;;;;;;;29.53;46.59;99891.77;104564;279;97959;-54
2023/07/29 09:50:33;;;;;;;;;;;;;;;29.47;47.18;99889.73;104504;279;121831;-54
2023/07/29 09:53:05;;;;;;;;;;;;;;;29.51;46.95;99887.14;104551;279;106100;-54
2023/07/29 09:55:37;;;;;;;;;;;;;;;29.12;46.52;99884.65;104145;267;113379;-54
2023/07/29 09:58:10;;;;;;;;;;;;;;;28.67;47.15;99884.30;104102;279;94467;-58
2023/07/29 10:00:43;;;;;;;;;;;;;;;27.97;46.79;99885.41;104524;279;97553;-58
2023/07/29 10:03:15;;;;;;;;;;;;;;;27.43;48.17;99885.45;104511;279;120974;-58
2023/07/29 10:05:48;;;;;;;;;;;;;;;27.86;49.26;99878.27;104514;279;105431;-55
2023/07/29 10:08:21;;;;;;;;;;;;;;;28.22;48.75;99867.04;103848;279;114979;-54
2023/07/29 10:10:53;;;;;;;;;;;;;;;28.27;48.02;99870.02;104080;279;93222;-54
2023/07/29 10:13:26;;;;;;;;;;;;;;;28.23;48.23;99870.21;104108;279;97287;-54
2023/07/29 10:15:59;;;;;;;;;;;;;;;28.20;48.05;99873.52;104095;279;121906;-56
2023/07/29 10:18:31;;;;;;;;;;;;;;;28.22;49.04;99876.92;104487;279;105847;-56
2023/07/29 10:21:06;;;;;;;;;;;;;;;28.38;49.00;99874.25;104077;279;114519;-56
2023/07/29 10:23:43;;;;;;;;;;;;;;;28.49;48.20;99874.80;104479;279;94342;-57
2023/07/29 10:26:18;;;;;;;;;;;;;;;28.43;47.75;99867.34;104119;279;97178;-55
2023/07/29 10:28:53;;;;;;;;;;;;;;;28.40;47.87;99864.36;104121;279;120618;-55
2023/07/29 10:31:25;;;;;;;;;;;;;;;28.34;47.87;99864.74;104085;279;105466;-57
2023/07/29 10:33:57;;;;;;;;;;;;;;;28.07;47.24;99864.42;104469;279;114795;-57
2023/07/29 10:36:30;;;;;;;;;;;;;;;27.80;47.68;99871.48;104092;279;94317;-53
2023/07/29 10:39:02;;;;;;;;;;;;;;;27.88;48.02;99871.92;104092;279;97794;-53
2023/07/29 10:42:00;;;;;;;;;;;;;;;27.98;47.42;99868.64;103819;279;124002;-56
2023/07/29 10:44:49;;;;;;;;;;;;;;;28.02;47.28;99863.48;104095;279;105399;-55
2023/07/29 10:47:23;;;;;;;;;;;;;;;28.17;47.56;99859.88;104065;283;114544;-55
2023/07/29 10:49:56;;;;;;;;;;;;;;;28.28;47.44;99859.59;104507;279;93051;-55
2023/07/29 10:52:40;;;;;;;;;;;;;;;28.35;47.15;99852.95;104108;279;97905;-59
2023/07/29 10:55:28;;;;;;;;;;;;;;;28.25;47.20;99852.94;104085;279;121765;-55
2023/07/29 10:58:13;;;;;;;;;;;;;;;28.35;47.63;99847.50;104075;279;104940;-55
2023/07/29 11:00:46;;;;;;;;;;;;;;;28.46;47.90;99847.58;104074;283;115122;-60
2023/07/29 11:03:18;;;;;;;;;;;;;;;28.46;47.43;99852.74;104074;279;92961;-58
2023/07/29 11:05:52;;;;;;;;;;;;;;;28.44;46.74;99851.19;104062;279;98634;-54
2023/07/29 11:08:28;;;;;;;;;;;;;;;28.52;46.82;99857.02;103837;279;122205;-53
2023/07/29 11:11:07;;;;;;;;;;;;;;;28.58;46.69;99846.25;104108;279;105560;-57
2023/07/29 11:13:40;;;;;;;;;;;;;;;28.60;46.97;99841.57;104486;279;112838;-58
2023/07/29 11:16:17;;;;;;;;;;;;;;;28.59;46.18;99842.13;104078;279;93793;-54
2023/07/29 11:18:49;;;;;;;;;;;;;;;28.41;46.24;99841.19;104092;279;97667;-54
2023/07/29 11:21:23;;;;;;;;;;;;;;;28.33;46.12;99836.98;104091;279;121945;-55
2023/07/29 11:23:56;;;;;;;;;;;;;;;28.34;46.34;99832.46;104075;279;105178;-56
2023/07/29 11:26:28;;;;;;;;;;;;;;;28.35;46.91;99830.76;104482;279;114482;-55
2023/07/29 11:29:00;;;;;;;;;;;;;;;28.15;46.45;99821.95;104096;279;93864;-55
2023/07/29 11:31:42;;;;;;;;;;;;;;;27.98;45.92;99820.48;104518;279;96625;-56
2023/07/29 11:34:20;;;;;;;;;;;;;;;27.78;46.28;99808.70;104119;279;120698;-56
2023/07/29 11:36:52;;;;;;;;;;;;;;;27.84;46.61;99807.13;104106;279;106949;-56
2023/07/29 11:39:24;;;;;;;;;;;;;;;27.82;46.87;99804.19;104058;279;114429;-56
2023/07/29 11:41:56;;;;;;;;;;;;;;;27.92;47.43;99801.30;104082;279;93525;-55
2023/07/29 11:44:29;;;;;;;;;;;;;;;27.95;46.97;99799.77;104500;279;96425;-55
2023/07/29 11:47:01;;;;;;;;;;;;;;;27.97;46.67;99796.47;104100;279;121746;-58
2023/07/29 11:49:33;;;;;;;;;;;;;;;28.13;47.16;99791.94;104498;279;104327;-58
2023/07/29 11:52:07;;;;;;;;;;;;;;;28.27;47.29;99787.21;104111;279;115520;-56
2023/07/29 11:54:40;;;;;;;;;;;;;;;28.36;47.30;99780.95;104101;279;95069;-56
2023/07/29 11:57:13;;;;;;;;;;;;;;;28.44;47.46;99782.27;104099;279;97709;-58
2023/07/29 11:59:46;;;;;;;;;;;;;;;28.46;47.57;99780.89;104090;279;121545;-58
2023/07/29 12:02:20;;;;;;;;;;;;;;;28.58;47.38;99779.64;104091;279;105622;-53
2023/07/29 12:04:53;;;;;;;;;;;;;;;28.48;47.34;99779.28;104091;279;115380;-53
2023/07/29 12:07:25;;;;;;;;;;;;;;;28.53;47.03;99773.45;104500;279;94546;-57
2023/07/29 12:09:57;;;;;;;;;;;;;;;28.42;46.48;99774.06;104516;279;98382;-58
2023/07/29 12:12:29;;;;;;;;;;;;;;;28.17;46.68;99774.59;104500;279;121991;-55
2023/07/29 12:15:01;;;;;;;;;;;;;;;28.17;47.17;99772.94;104095;279;105487;-55
2023/07/29 12:17:38;;;;;;;;;;;;;;;28.26;46.69;99771.91;104474;279;113783;-53
2023/07/29 12:20:13;;;;;;;;;;;;;;;28.31;46.61;99765.52;104484;279;93900;-53
2023/07/29 12:22:45;;;;;;;;;;;;;;;28.26;46.71;99764.86;104100;279;95633;-55
2023/07/29 12:25:17;;;;;;;;;;;;;;;28.23;46.66;99759.16;104484;279;119786;-55
2023/07/29 12:27:50;;;;;;;;;;;;;;;28.30;47.10;99758.17;104101;279;106262;-55
2023/07/29 12:30:26;;;;;;;;;;;;;;;28.34;47.18;99758.38;104476;279;114438;-54
2023/07/29 12:32:58;;;;;;;;;;;;;;;28.22;47.13;99756.52;104087;268;94288;-55
2023/07/29 12:35:38;;;;;;;;;;;;;;;28.06;46.85;99753.95;104082;279;97184;-55
2023/07/29 12:38:10;;;;;;;;;;;;;;;28.11;47.23;99752.69;104128;279;122395;-57
2023/07/29 12:40:43;;;;;;;;;;;;;;;28.25;47.36;99749.75;104097;279;106100;-57
2023/07/29 12:43:15;;;;;;;;;;;;;;;28.32;47.71;99747.79;104469;279;114452;-57
2023/07/29 12:45:50;;;;;;;;;;;;;;;28.28;47.69;99742.02;104097;279;95231;-56
2023/07/29 12:48:22;;;;;;;;;;;;;;;28.35;47.39;99742.54;104078;279;97069;-53
2023/07/29 12:50:54;;;;;;;;;;;;;;;28.41;47.44;99741.86;104488;279;119441;-57
2023/07/29 12:53:26;;;;;;;;;;;;;;;28.47;47.39;99739.88;104075;279;104396;-57
2023/07/29 12:56:01;;;;;;;;;;;;;;;28.32;46.86;99736.60;104073;279;112892;-54
2023/07/29 12:58:33;;;;;;;;;;;;;;;28.33;46.87;99737.73;104085;279;94180;-54
2023/07/29 13:01:05;;;;;;;;;;;;;;;28.51;47.08;99736.66;104509;279;97845;-58
2023/07/29 13:03:37;;;;;;;;;;;;;;;28.60;46.84;99731.44;104120;279;122135;-58
2023/07/29 13:06:09;;;;;;;;;;;;;;;28.60;46.97;99729.15;104157;279;104262;-55
2023/07/29 13:08:42;;;;;;;;;;;;;;;28.71;47.05;99725.47;103921;280;114259;-55
2023/07/29 13:11:14;;;;;;;;;;;;;;;28.84;46.79;99719.73;104103;279;94424;-55